sensor_id;sensor_type;location;lat;lon;timestamp;P1;durP1;ratioP1;P2;durP2;ratioP2
45007;SDS011;30743;52.008;5.644;2022-12-29T00:02:01;2.83;;;1.70;;
45007;SDS011;30743;52.008;5.644;2022-12-29T00:04:27;1.48;;;1.25;;
45007;SDS011;30743;52.008;5.644;2022-12-29T00:06:52;4.68;;;1.60;;
45007;SDS011;30743;52.008;5.644;2022-12-29T00:09:19;1.60;;;1.42;;
45007;SDS011;30743;52.008;5.644;2022-12-29T00:11:44;1.98;;;1.58;;
45007;SDS011;30743;52.008;5.644;2022-12-29T00:14:10;1.95;;;1.40;;
45007;SDS011;30743;52.008;5.644;2022-12-29T00:16:55;2.22;;;1.40;;
45007;SDS011;30743;52.008;5.644;2022-12-29T00:19:21;3.47;;;1.55;;
45007;SDS011;30743;52.008;5.644;2022-12-29T00:22:05;3.25;;;1.42;;
45007;SDS011;30743;52.008;5.644;2022-12-29T00:24:51;2.97;;;1.27;;
45007;SDS011;30743;52.008;5.644;2022-12-29T00:27:35;1.77;;;1.30;;
45007;SDS011;30743;52.008;5.644;2022-12-29T00:30:36;2.03;;;1.30;;
45007;SDS011;30743;52.008;5.644;2022-12-29T00:33:21;2.97;;;1.50;;
45007;SDS011;30743;52.008;5.644;2022-12-29T00:38:38;1.80;;;1.30;;
45007;SDS011;30743;52.008;5.644;2022-12-29T00:41:25;1.80;;;1.10;;
45007;SDS011;30743;52.008;5.644;2022-12-29T00:44:11;3.13;;;1.40;;
45007;SDS011;30743;52.008;5.644;2022-12-29T00:46:38;2.80;;;1.20;;
45007;SDS011;30743;52.008;5.644;2022-12-29T00:49:06;1.75;;;1.20;;
45007;SDS011;30743;52.008;5.644;2022-12-29T00:51:51;2.88;;;1.10;;
45007;SDS011;30743;52.008;5.644;2022-12-29T00:54:17;1.55;;;1.20;;
45007;SDS011;30743;52.008;5.644;2022-12-29T00:56:45;1.58;;;1.08;;
45007;SDS011;30743;52.008;5.644;2022-12-29T00:59:12;1.63;;;1.25;;
45007;SDS011;30743;52.008;5.644;2022-12-29T01:01:38;1.40;;;1.17;;
45007;SDS011;30743;52.008;5.644;2022-12-29T01:04:04;1.20;;;0.80;;
45007;SDS011;30743;52.008;5.644;2022-12-29T01:06:30;1.85;;;1.00;;
45007;SDS011;30743;52.008;5.644;2022-12-29T01:08:57;1.33;;;1.05;;
45007;SDS011;30743;52.008;5.644;2022-12-29T01:11:40;1.58;;;1.05;;
45007;SDS011;30743;52.008;5.644;2022-12-29T01:14:06;1.13;;;0.93;;
45007;SDS011;30743;52.008;5.644;2022-12-29T01:16:32;1.80;;;0.80;;
45007;SDS011;30743;52.008;5.644;2022-12-29T01:18:57;1.65;;;0.80;;
45007;SDS011;30743;52.008;5.644;2022-12-29T01:21:23;0.70;;;0.60;;
45007;SDS011;30743;52.008;5.644;2022-12-29T01:23:49;1.65;;;0.80;;
45007;SDS011;30743;52.008;5.644;2022-12-29T01:26:15;0.65;;;0.57;;
45007;SDS011;30743;52.008;5.644;2022-12-29T01:28:42;1.52;;;0.68;;
45007;SDS011;30743;52.008;5.644;2022-12-29T01:31:08;1.20;;;0.80;;
45007;SDS011;30743;52.008;5.644;2022-12-29T01:33:35;0.63;;;0.60;;
45007;SDS011;30743;52.008;5.644;2022-12-29T01:36:01;2.00;;;0.80;;
45007;SDS011;30743;52.008;5.644;2022-12-29T01:38:27;2.38;;;0.52;;
45007;SDS011;30743;52.008;5.644;2022-12-29T01:40:53;2.20;;;0.70;;
45007;SDS011;30743;52.008;5.644;2022-12-29T01:43:18;1.13;;;0.70;;
45007;SDS011;30743;52.008;5.644;2022-12-29T01:45:45;0.98;;;0.80;;
45007;SDS011;30743;52.008;5.644;2022-12-29T01:48:14;1.85;;;0.63;;
45007;SDS011;30743;52.008;5.644;2022-12-29T01:50:45;1.75;;;1.02;;
45007;SDS011;30743;52.008;5.644;2022-12-29T01:53:16;1.08;;;0.68;;
45007;SDS011;30743;52.008;5.644;2022-12-29T01:55:43;2.17;;;0.90;;
45007;SDS011;30743;52.008;5.644;2022-12-29T01:58:21;1.58;;;0.80;;
45007;SDS011;30743;52.008;5.644;2022-12-29T02:00:49;1.60;;;0.82;;
45007;SDS011;30743;52.008;5.644;2022-12-29T02:03:15;1.45;;;0.90;;
45007;SDS011;30743;52.008;5.644;2022-12-29T02:05:47;1.05;;;0.90;;
45007;SDS011;30743;52.008;5.644;2022-12-29T02:08:33;1.65;;;0.80;;
45007;SDS011;30743;52.008;5.644;2022-12-29T02:10:59;1.58;;;0.90;;
45007;SDS011;30743;52.008;5.644;2022-12-29T02:13:26;0.85;;;0.80;;
45007;SDS011;30743;52.008;5.644;2022-12-29T02:15:56;2.03;;;1.02;;
45007;SDS011;30743;52.008;5.644;2022-12-29T02:21:44;1.42;;;0.95;;
45007;SDS011;30743;52.008;5.644;2022-12-29T02:35:35;1.25;;;0.60;;
45007;SDS011;30743;52.008;5.644;2022-12-29T02:44:05;0.50;;;0.40;;
45007;SDS011;30743;52.008;5.644;2022-12-29T02:46:47;0.63;;;0.30;;
45007;SDS011;30743;52.008;5.644;2022-12-29T02:51:58;0.70;;;0.50;;
45007;SDS011;30743;52.008;5.644;2022-12-29T02:54:31;2.63;;;0.50;;
45007;SDS011;30743;52.008;5.644;2022-12-29T02:57:48;3.22;;;0.57;;
45007;SDS011;30743;52.008;5.644;2022-12-29T02:59:58;1.58;;;0.60;;
45007;SDS011;30743;52.008;5.644;2022-12-29T03:05:30;3.05;;;0.90;;
45007;SDS011;30743;52.008;5.644;2022-12-29T03:08:19;3.65;;;1.15;;
45007;SDS011;30743;52.008;5.644;2022-12-29T03:11:02;1.17;;;0.60;;
45007;SDS011;30743;52.008;5.644;2022-12-29T03:13:34;1.92;;;0.60;;
45007;SDS011;30743;52.008;5.644;2022-12-29T03:21:36;2.05;;;0.40;;
45007;SDS011;30743;52.008;5.644;2022-12-29T03:24:27;2.38;;;0.60;;
45007;SDS011;30743;52.008;5.644;2022-12-29T03:26:57;2.05;;;0.50;;
45007;SDS011;30743;52.008;5.644;2022-12-29T03:29:26;2.28;;;0.55;;
45007;SDS011;30743;52.008;5.644;2022-12-29T03:31:53;1.08;;;0.60;;
45007;SDS011;30743;52.008;5.644;2022-12-29T03:34:20;1.88;;;0.65;;
45007;SDS011;30743;52.008;5.644;2022-12-29T03:36:48;1.20;;;0.57;;
45007;SDS011;30743;52.008;5.644;2022-12-29T03:39:18;2.92;;;0.70;;
45007;SDS011;30743;52.008;5.644;2022-12-29T03:41:46;2.03;;;0.85;;
45007;SDS011;30743;52.008;5.644;2022-12-29T03:44:19;1.10;;;0.70;;
45007;SDS011;30743;52.008;5.644;2022-12-29T03:46:44;2.72;;;0.80;;
45007;SDS011;30743;52.008;5.644;2022-12-29T03:49:10;2.50;;;0.60;;
45007;SDS011;30743;52.008;5.644;2022-12-29T03:51:35;1.30;;;0.60;;
45007;SDS011;30743;52.008;5.644;2022-12-29T03:54:01;1.35;;;0.65;;
45007;SDS011;30743;52.008;5.644;2022-12-29T03:56:27;2.90;;;0.90;;
45007;SDS011;30743;52.008;5.644;2022-12-29T03:58:52;3.22;;;0.77;;
45007;SDS011;30743;52.008;5.644;2022-12-29T04:01:18;1.73;;;0.60;;
45007;SDS011;30743;52.008;5.644;2022-12-29T04:03:43;2.05;;;0.50;;
45007;SDS011;30743;52.008;5.644;2022-12-29T04:06:09;1.63;;;0.65;;
45007;SDS011;30743;52.008;5.644;2022-12-29T04:08:34;2.30;;;0.60;;
45007;SDS011;30743;52.008;5.644;2022-12-29T04:11:00;3.08;;;0.93;;
45007;SDS011;30743;52.008;5.644;2022-12-29T04:13:25;1.52;;;0.50;;
45007;SDS011;30743;52.008;5.644;2022-12-29T04:15:51;2.08;;;0.57;;
45007;SDS011;30743;52.008;5.644;2022-12-29T04:18:16;1.95;;;0.63;;
45007;SDS011;30743;52.008;5.644;2022-12-29T04:20:42;3.30;;;0.60;;
45007;SDS011;30743;52.008;5.644;2022-12-29T04:23:29;1.95;;;0.52;;
45007;SDS011;30743;52.008;5.644;2022-12-29T04:25:55;1.45;;;0.45;;
45007;SDS011;30743;52.008;5.644;2022-12-29T04:28:21;3.38;;;0.50;;
45007;SDS011;30743;52.008;5.644;2022-12-29T04:30:47;2.13;;;0.50;;
45007;SDS011;30743;52.008;5.644;2022-12-29T04:33:13;1.80;;;0.40;;
45007;SDS011;30743;52.008;5.644;2022-12-29T04:35:38;4.03;;;0.60;;
45007;SDS011;30743;52.008;5.644;2022-12-29T04:38:04;3.17;;;1.10;;
45007;SDS011;30743;52.008;5.644;2022-12-29T04:40:29;2.25;;;0.43;;
45007;SDS011;30743;52.008;5.644;2022-12-29T04:42:55;3.35;;;0.73;;
45007;SDS011;30743;52.008;5.644;2022-12-29T04:45:21;2.15;;;0.93;;
45007;SDS011;30743;52.008;5.644;2022-12-29T04:47:46;2.03;;;0.82;;
45007;SDS011;30743;52.008;5.644;2022-12-29T04:50:12;5.38;;;0.70;;
45007;SDS011;30743;52.008;5.644;2022-12-29T04:52:37;3.58;;;1.17;;
45007;SDS011;30743;52.008;5.644;2022-12-29T04:55:03;5.72;;;0.60;;
45007;SDS011;30743;52.008;5.644;2022-12-29T04:57:30;2.78;;;0.70;;
45007;SDS011;30743;52.008;5.644;2022-12-29T04:59:55;1.70;;;0.57;;
45007;SDS011;30743;52.008;5.644;2022-12-29T05:02:21;8.35;;;2.25;;
45007;SDS011;30743;52.008;5.644;2022-12-29T05:04:47;3.42;;;1.02;;
45007;SDS011;30743;52.008;5.644;2022-12-29T05:07:12;4.03;;;0.80;;
45007;SDS011;30743;52.008;5.644;2022-12-29T05:09:38;2.80;;;0.82;;
45007;SDS011;30743;52.008;5.644;2022-12-29T05:12:04;1.70;;;0.73;;
45007;SDS011;30743;52.008;5.644;2022-12-29T05:14:29;4.32;;;0.88;;
45007;SDS011;30743;52.008;5.644;2022-12-29T05:16:55;4.82;;;0.88;;
45007;SDS011;30743;52.008;5.644;2022-12-29T05:19:21;3.65;;;0.60;;
45007;SDS011;30743;52.008;5.644;2022-12-29T05:21:46;3.00;;;0.73;;
45007;SDS011;30743;52.008;5.644;2022-12-29T05:24:12;2.95;;;0.68;;
45007;SDS011;30743;52.008;5.644;2022-12-29T05:26:37;3.58;;;0.77;;
45007;SDS011;30743;52.008;5.644;2022-12-29T05:29:03;5.95;;;0.85;;
45007;SDS011;30743;52.008;5.644;2022-12-29T05:31:28;5.43;;;0.70;;
45007;SDS011;30743;52.008;5.644;2022-12-29T05:33:54;2.60;;;0.70;;
45007;SDS011;30743;52.008;5.644;2022-12-29T05:36:19;4.38;;;1.35;;
45007;SDS011;30743;52.008;5.644;2022-12-29T05:38:45;2.85;;;0.60;;
45007;SDS011;30743;52.008;5.644;2022-12-29T05:41:10;4.18;;;0.60;;
45007;SDS011;30743;52.008;5.644;2022-12-29T05:43:36;4.63;;;0.95;;
45007;SDS011;30743;52.008;5.644;2022-12-29T05:46:02;3.88;;;0.95;;
45007;SDS011;30743;52.008;5.644;2022-12-29T05:48:28;3.85;;;0.98;;
45007;SDS011;30743;52.008;5.644;2022-12-29T05:50:53;3.80;;;0.75;;
45007;SDS011;30743;52.008;5.644;2022-12-29T05:53:19;3.10;;;0.80;;
45007;SDS011;30743;52.008;5.644;2022-12-29T05:55:46;3.90;;;0.80;;
45007;SDS011;30743;52.008;5.644;2022-12-29T05:58:12;3.28;;;0.82;;
45007;SDS011;30743;52.008;5.644;2022-12-29T06:00:38;3.75;;;1.02;;
45007;SDS011;30743;52.008;5.644;2022-12-29T06:03:03;6.22;;;1.20;;
45007;SDS011;30743;52.008;5.644;2022-12-29T06:05:29;3.67;;;0.80;;
45007;SDS011;30743;52.008;5.644;2022-12-29T06:07:55;9.13;;;1.15;;
45007;SDS011;30743;52.008;5.644;2022-12-29T06:10:20;4.22;;;1.00;;
45007;SDS011;30743;52.008;5.644;2022-12-29T06:12:46;2.25;;;0.70;;
45007;SDS011;30743;52.008;5.644;2022-12-29T06:15:11;5.60;;;0.80;;
45007;SDS011;30743;52.008;5.644;2022-12-29T06:17:37;4.32;;;0.80;;
45007;SDS011;30743;52.008;5.644;2022-12-29T06:20:03;3.33;;;0.93;;
45007;SDS011;30743;52.008;5.644;2022-12-29T06:22:29;3.75;;;1.35;;
45007;SDS011;30743;52.008;5.644;2022-12-29T06:24:54;4.15;;;1.08;;
45007;SDS011;30743;52.008;5.644;2022-12-29T06:27:20;7.75;;;1.25;;
45007;SDS011;30743;52.008;5.644;2022-12-29T06:29:45;5.85;;;1.20;;
45007;SDS011;30743;52.008;5.644;2022-12-29T06:32:11;4.43;;;0.73;;
45007;SDS011;30743;52.008;5.644;2022-12-29T06:34:36;3.90;;;1.02;;
45007;SDS011;30743;52.008;5.644;2022-12-29T06:37:02;3.80;;;0.93;;
45007;SDS011;30743;52.008;5.644;2022-12-29T06:39:27;4.90;;;0.82;;
45007;SDS011;30743;52.008;5.644;2022-12-29T06:41:53;6.57;;;0.90;;
45007;SDS011;30743;52.008;5.644;2022-12-29T06:44:20;8.40;;;1.58;;
45007;SDS011;30743;52.008;5.644;2022-12-29T06:46:46;4.20;;;0.77;;
45007;SDS011;30743;52.008;5.644;2022-12-29T06:49:11;4.97;;;1.00;;
45007;SDS011;30743;52.008;5.644;2022-12-29T06:51:37;5.07;;;1.10;;
45007;SDS011;30743;52.008;5.644;2022-12-29T06:54:03;3.67;;;1.00;;
45007;SDS011;30743;52.008;5.644;2022-12-29T06:56:28;4.50;;;1.00;;
45007;SDS011;30743;52.008;5.644;2022-12-29T06:58:54;5.63;;;1.02;;
45007;SDS011;30743;52.008;5.644;2022-12-29T07:01:19;5.10;;;1.10;;
45007;SDS011;30743;52.008;5.644;2022-12-29T07:03:45;4.95;;;0.80;;
45007;SDS011;30743;52.008;5.644;2022-12-29T07:06:10;6.30;;;0.95;;
45007;SDS011;30743;52.008;5.644;2022-12-29T07:08:36;4.97;;;1.02;;
45007;SDS011;30743;52.008;5.644;2022-12-29T07:11:01;4.95;;;1.17;;
45007;SDS011;30743;52.008;5.644;2022-12-29T07:13:27;2.28;;;0.52;;
45007;SDS011;30743;52.008;5.644;2022-12-29T07:15:53;3.70;;;1.00;;
45007;SDS011;30743;52.008;5.644;2022-12-29T07:18:19;6.18;;;1.27;;
45007;SDS011;30743;52.008;5.644;2022-12-29T07:20:44;8.40;;;1.60;;
45007;SDS011;30743;52.008;5.644;2022-12-29T07:23:10;3.08;;;1.05;;
45007;SDS011;30743;52.008;5.644;2022-12-29T07:25:35;4.30;;;0.93;;
45007;SDS011;30743;52.008;5.644;2022-12-29T07:28:01;6.32;;;1.08;;
45007;SDS011;30743;52.008;5.644;2022-12-29T07:30:27;8.02;;;1.10;;
45007;SDS011;30743;52.008;5.644;2022-12-29T07:32:53;7.95;;;1.15;;
45007;SDS011;30743;52.008;5.644;2022-12-29T07:35:19;5.35;;;1.20;;
45007;SDS011;30743;52.008;5.644;2022-12-29T07:37:44;8.55;;;1.30;;
45007;SDS011;30743;52.008;5.644;2022-12-29T07:40:10;5.40;;;1.05;;
45007;SDS011;30743;52.008;5.644;2022-12-29T07:42:36;4.93;;;1.20;;
45007;SDS011;30743;52.008;5.644;2022-12-29T07:45:01;3.78;;;1.08;;
45007;SDS011;30743;52.008;5.644;2022-12-29T07:47:27;5.32;;;1.10;;
45007;SDS011;30743;52.008;5.644;2022-12-29T07:49:53;6.80;;;1.58;;
45007;SDS011;30743;52.008;5.644;2022-12-29T07:52:18;6.88;;;1.55;;
45007;SDS011;30743;52.008;5.644;2022-12-29T07:54:44;6.53;;;1.30;;
45007;SDS011;30743;52.008;5.644;2022-12-29T07:57:10;4.63;;;1.55;;
45007;SDS011;30743;52.008;5.644;2022-12-29T07:59:35;3.53;;;1.00;;
45007;SDS011;30743;52.008;5.644;2022-12-29T08:02:01;4.88;;;1.27;;
45007;SDS011;30743;52.008;5.644;2022-12-29T08:04:26;5.85;;;1.20;;
45007;SDS011;30743;52.008;5.644;2022-12-29T08:06:52;7.95;;;1.80;;
45007;SDS011;30743;52.008;5.644;2022-12-29T08:09:17;4.03;;;0.77;;
45007;SDS011;30743;52.008;5.644;2022-12-29T08:11:43;6.78;;;1.33;;
45007;SDS011;30743;52.008;5.644;2022-12-29T08:14:09;7.15;;;1.30;;
45007;SDS011;30743;52.008;5.644;2022-12-29T08:16:34;8.77;;;1.23;;
45007;SDS011;30743;52.008;5.644;2022-12-29T08:19:00;4.45;;;1.10;;
45007;SDS011;30743;52.008;5.644;2022-12-29T08:21:26;3.53;;;0.85;;
45007;SDS011;30743;52.008;5.644;2022-12-29T08:23:52;6.53;;;1.30;;
45007;SDS011;30743;52.008;5.644;2022-12-29T08:26:18;6.10;;;1.13;;
45007;SDS011;30743;52.008;5.644;2022-12-29T08:28:43;7.90;;;1.25;;
45007;SDS011;30743;52.008;5.644;2022-12-29T08:31:09;4.35;;;0.90;;
45007;SDS011;30743;52.008;5.644;2022-12-29T08:33:35;7.72;;;1.50;;
45007;SDS011;30743;52.008;5.644;2022-12-29T08:36:01;3.85;;;1.23;;
45007;SDS011;30743;52.008;5.644;2022-12-29T08:38:29;5.40;;;1.23;;
45007;SDS011;30743;52.008;5.644;2022-12-29T08:40:55;5.32;;;0.95;;
45007;SDS011;30743;52.008;5.644;2022-12-29T08:43:21;4.63;;;0.88;;
45007;SDS011;30743;52.008;5.644;2022-12-29T08:45:47;7.50;;;1.20;;
45007;SDS011;30743;52.008;5.644;2022-12-29T08:48:12;4.88;;;0.73;;
45007;SDS011;30743;52.008;5.644;2022-12-29T08:50:38;2.35;;;0.60;;
45007;SDS011;30743;52.008;5.644;2022-12-29T08:53:03;6.15;;;1.08;;
45007;SDS011;30743;52.008;5.644;2022-12-29T08:55:29;1.70;;;0.50;;
45007;SDS011;30743;52.008;5.644;2022-12-29T08:57:54;6.18;;;1.00;;
45007;SDS011;30743;52.008;5.644;2022-12-29T09:00:20;4.20;;;0.90;;
45007;SDS011;30743;52.008;5.644;2022-12-29T09:02:45;6.72;;;1.00;;
45007;SDS011;30743;52.008;5.644;2022-12-29T09:05:11;4.15;;;0.85;;
45007;SDS011;30743;52.008;5.644;2022-12-29T10:14:12;8.65;;;1.58;;
45007;SDS011;30743;52.008;5.644;2022-12-29T10:19:55;5.93;;;1.52;;
45007;SDS011;30743;52.008;5.644;2022-12-29T10:25:19;5.03;;;1.13;;
45007;SDS011;30743;52.008;5.644;2022-12-29T10:27:48;4.35;;;1.25;;
45007;SDS011;30743;52.008;5.644;2022-12-29T10:30:15;3.58;;;1.20;;
45007;SDS011;30743;52.008;5.644;2022-12-29T10:32:45;5.93;;;1.48;;
45007;SDS011;30743;52.008;5.644;2022-12-29T10:35:20;5.15;;;1.40;;
45007;SDS011;30743;52.008;5.644;2022-12-29T10:37:53;5.30;;;1.63;;
45007;SDS011;30743;52.008;5.644;2022-12-29T10:45:57;6.72;;;1.70;;
45007;SDS011;30743;52.008;5.644;2022-12-29T10:48:30;7.95;;;1.52;;
45007;SDS011;30743;52.008;5.644;2022-12-29T10:50:58;9.45;;;1.90;;
45007;SDS011;30743;52.008;5.644;2022-12-29T10:53:27;5.57;;;1.73;;
45007;SDS011;30743;52.008;5.644;2022-12-29T10:56:03;7.97;;;1.88;;
45007;SDS011;30743;52.008;5.644;2022-12-29T10:58:37;9.82;;;2.20;;
45007;SDS011;30743;52.008;5.644;2022-12-29T11:01:07;5.75;;;1.73;;
45007;SDS011;30743;52.008;5.644;2022-12-29T11:06:27;5.47;;;1.70;;
45007;SDS011;30743;52.008;5.644;2022-12-29T11:08:58;9.02;;;1.92;;
45007;SDS011;30743;52.008;5.644;2022-12-29T11:11:36;10.45;;;2.28;;
45007;SDS011;30743;52.008;5.644;2022-12-29T11:14:08;6.18;;;2.50;;
45007;SDS011;30743;52.008;5.644;2022-12-29T11:16:37;9.25;;;2.95;;
45007;SDS011;30743;52.008;5.644;2022-12-29T11:19:03;12.15;;;2.45;;
45007;SDS011;30743;52.008;5.644;2022-12-29T11:21:36;7.97;;;2.50;;
45007;SDS011;30743;52.008;5.644;2022-12-29T11:26:50;7.30;;;2.08;;
45007;SDS011;30743;52.008;5.644;2022-12-29T11:29:23;8.05;;;2.63;;
45007;SDS011;30743;52.008;5.644;2022-12-29T11:31:51;9.40;;;2.83;;
45007;SDS011;30743;52.008;5.644;2022-12-29T11:34:24;11.85;;;3.10;;
45007;SDS011;30743;52.008;5.644;2022-12-29T11:36:53;8.52;;;2.95;;
45007;SDS011;30743;52.008;5.644;2022-12-29T11:39:26;10.55;;;2.80;;
45007;SDS011;30743;52.008;5.644;2022-12-29T11:41:55;10.95;;;3.17;;
45007;SDS011;30743;52.008;5.644;2022-12-29T11:44:22;10.05;;;4.03;;
45007;SDS011;30743;52.008;5.644;2022-12-29T11:46:48;7.90;;;2.83;;
45007;SDS011;30743;52.008;5.644;2022-12-29T11:49:20;8.82;;;3.08;;
45007;SDS011;30743;52.008;5.644;2022-12-29T11:51:50;12.27;;;3.35;;
45007;SDS011;30743;52.008;5.644;2022-12-29T11:54:21;6.60;;;2.88;;
45007;SDS011;30743;52.008;5.644;2022-12-29T11:56:54;8.80;;;2.95;;
45007;SDS011;30743;52.008;5.644;2022-12-29T12:01:59;12.55;;;3.08;;
45007;SDS011;30743;52.008;5.644;2022-12-29T12:04:28;12.57;;;4.28;;
45007;SDS011;30743;52.008;5.644;2022-12-29T12:07:00;10.55;;;3.83;;
45007;SDS011;30743;52.008;5.644;2022-12-29T12:09:34;6.40;;;2.35;;
45007;SDS011;30743;52.008;5.644;2022-12-29T12:12:03;5.45;;;2.38;;
45007;SDS011;30743;52.008;5.644;2022-12-29T12:14:38;8.35;;;2.60;;
45007;SDS011;30743;52.008;5.644;2022-12-29T12:17:15;11.63;;;2.95;;
45007;SDS011;30743;52.008;5.644;2022-12-29T12:20:02;11.05;;;2.50;;
45007;SDS011;30743;52.008;5.644;2022-12-29T12:22:46;8.95;;;2.60;;
45007;SDS011;30743;52.008;5.644;2022-12-29T12:25:23;13.95;;;2.63;;
45007;SDS011;30743;52.008;5.644;2022-12-29T12:27:57;8.82;;;2.55;;
45007;SDS011;30743;52.008;5.644;2022-12-29T12:30:38;6.82;;;2.55;;
45007;SDS011;30743;52.008;5.644;2022-12-29T12:33:22;9.00;;;2.50;;
45007;SDS011;30743;52.008;5.644;2022-12-29T12:38:48;6.82;;;2.60;;
45007;SDS011;30743;52.008;5.644;2022-12-29T12:41:35;6.05;;;2.00;;
45007;SDS011;30743;52.008;5.644;2022-12-29T12:44:11;9.13;;;2.70;;
45007;SDS011;30743;52.008;5.644;2022-12-29T12:49:26;10.98;;;2.20;;
45007;SDS011;30743;52.008;5.644;2022-12-29T13:00:54;8.45;;;2.75;;
45007;SDS011;30743;52.008;5.644;2022-12-29T13:09:14;8.55;;;2.50;;
45007;SDS011;30743;52.008;5.644;2022-12-29T13:14:41;8.23;;;2.63;;
45007;SDS011;30743;52.008;5.644;2022-12-29T13:17:41;9.23;;;2.53;;
45007;SDS011;30743;52.008;5.644;2022-12-29T13:20:19;10.73;;;2.72;;
45007;SDS011;30743;52.008;5.644;2022-12-29T13:23:04;8.02;;;2.63;;
45007;SDS011;30743;52.008;5.644;2022-12-29T13:28:49;7.32;;;2.25;;
45007;SDS011;30743;52.008;5.644;2022-12-29T13:36:58;6.70;;;2.17;;
45007;SDS011;30743;52.008;5.644;2022-12-29T13:39:28;10.10;;;1.88;;
45007;SDS011;30743;52.008;5.644;2022-12-29T13:41:59;9.20;;;2.30;;
45007;SDS011;30743;52.008;5.644;2022-12-29T13:44:28;14.40;;;2.80;;
45007;SDS011;30743;52.008;5.644;2022-12-29T13:47:21;6.57;;;2.00;;
45007;SDS011;30743;52.008;5.644;2022-12-29T13:49:59;8.98;;;2.13;;
45007;SDS011;30743;52.008;5.644;2022-12-29T13:55:02;11.45;;;2.78;;
45007;SDS011;30743;52.008;5.644;2022-12-29T14:00:46;6.53;;;1.80;;
45007;SDS011;30743;52.008;5.644;2022-12-29T14:09:28;4.63;;;1.70;;
45007;SDS011;30743;52.008;5.644;2022-12-29T14:12:27;7.88;;;1.60;;
45007;SDS011;30743;52.008;5.644;2022-12-29T14:14:53;5.00;;;1.33;;
45007;SDS011;30743;52.008;5.644;2022-12-29T14:17:19;5.40;;;1.10;;
45007;SDS011;30743;52.008;5.644;2022-12-29T14:19:46;3.30;;;0.70;;
45007;SDS011;30743;52.008;5.644;2022-12-29T14:22:16;2.17;;;0.60;;
45007;SDS011;30743;52.008;5.644;2022-12-29T14:24:51;1.90;;;0.57;;
45007;SDS011;30743;52.008;5.644;2022-12-29T14:29:44;3.55;;;0.80;;
45007;SDS011;30743;52.008;5.644;2022-12-29T14:34:46;3.00;;;1.00;;
45007;SDS011;30743;52.008;5.644;2022-12-29T14:37:28;1.60;;;0.85;;
45007;SDS011;30743;52.008;5.644;2022-12-29T14:42:50;5.35;;;1.95;;
45007;SDS011;30743;52.008;5.644;2022-12-29T14:47:44;3.35;;;1.98;;
45007;SDS011;30743;52.008;5.644;2022-12-29T14:57:49;4.13;;;1.77;;
45007;SDS011;30743;52.008;5.644;2022-12-29T15:00:27;5.68;;;2.15;;
45007;SDS011;30743;52.008;5.644;2022-12-29T15:03:04;5.97;;;1.75;;
45007;SDS011;30743;52.008;5.644;2022-12-29T15:05:46;7.00;;;1.88;;
45007;SDS011;30743;52.008;5.644;2022-12-29T15:08:16;5.97;;;1.88;;
45007;SDS011;30743;52.008;5.644;2022-12-29T15:13:42;3.63;;;1.40;;
45007;SDS011;30743;52.008;5.644;2022-12-29T15:16:25;3.38;;;1.23;;
45007;SDS011;30743;52.008;5.644;2022-12-29T15:18:54;4.53;;;1.35;;
45007;SDS011;30743;52.008;5.644;2022-12-29T15:21:29;7.25;;;2.03;;
45007;SDS011;30743;52.008;5.644;2022-12-29T15:23:59;4.18;;;1.50;;
45007;SDS011;30743;52.008;5.644;2022-12-29T15:26:38;9.82;;;2.70;;
45007;SDS011;30743;52.008;5.644;2022-12-29T15:29:27;8.63;;;1.92;;
45007;SDS011;30743;52.008;5.644;2022-12-29T15:34:40;4.72;;;1.52;;
45007;SDS011;30743;52.008;5.644;2022-12-29T15:37:06;4.60;;;1.50;;
45007;SDS011;30743;52.008;5.644;2022-12-29T15:39:33;6.80;;;1.63;;
45007;SDS011;30743;52.008;5.644;2022-12-29T15:44:52;6.28;;;2.05;;
45007;SDS011;30743;52.008;5.644;2022-12-29T15:47:18;5.82;;;1.42;;
45007;SDS011;30743;52.008;5.644;2022-12-29T15:49:50;7.60;;;1.50;;
45007;SDS011;30743;52.008;5.644;2022-12-29T15:52:19;6.05;;;1.58;;
45007;SDS011;30743;52.008;5.644;2022-12-29T15:54:46;9.18;;;1.90;;
45007;SDS011;30743;52.008;5.644;2022-12-29T15:57:31;7.93;;;2.00;;
45007;SDS011;30743;52.008;5.644;2022-12-29T16:00:26;10.68;;;2.03;;
45007;SDS011;30743;52.008;5.644;2022-12-29T16:02:57;8.32;;;3.13;;
45007;SDS011;30743;52.008;5.644;2022-12-29T16:05:30;5.55;;;1.52;;
45007;SDS011;30743;52.008;5.644;2022-12-29T16:08:00;5.05;;;2.25;;
45007;SDS011;30743;52.008;5.644;2022-12-29T16:10:28;4.50;;;1.50;;
45007;SDS011;30743;52.008;5.644;2022-12-29T16:13:02;4.78;;;1.30;;
45007;SDS011;30743;52.008;5.644;2022-12-29T16:15:30;4.00;;;1.08;;
45007;SDS011;30743;52.008;5.644;2022-12-29T16:17:55;5.20;;;1.67;;
45007;SDS011;30743;52.008;5.644;2022-12-29T16:20:22;4.25;;;1.27;;
45007;SDS011;30743;52.008;5.644;2022-12-29T16:22:51;1.88;;;1.10;;
45007;SDS011;30743;52.008;5.644;2022-12-29T16:25:25;2.15;;;1.08;;
45007;SDS011;30743;52.008;5.644;2022-12-29T16:27:56;7.07;;;1.50;;
45007;SDS011;30743;52.008;5.644;2022-12-29T16:30:27;4.15;;;1.75;;
45007;SDS011;30743;52.008;5.644;2022-12-29T16:32:55;7.00;;;2.92;;
45007;SDS011;30743;52.008;5.644;2022-12-29T16:35:26;5.43;;;1.88;;
45007;SDS011;30743;52.008;5.644;2022-12-29T16:40:56;4.93;;;1.13;;
45007;SDS011;30743;52.008;5.644;2022-12-29T16:43:25;3.40;;;0.88;;
45007;SDS011;30743;52.008;5.644;2022-12-29T16:48:23;2.22;;;1.00;;
45007;SDS011;30743;52.008;5.644;2022-12-29T16:50:51;3.45;;;0.93;;
45007;SDS011;30743;52.008;5.644;2022-12-29T16:53:32;6.25;;;1.58;;
45007;SDS011;30743;52.008;5.644;2022-12-29T16:56:14;3.13;;;0.90;;
45007;SDS011;30743;52.008;5.644;2022-12-29T16:58:45;3.78;;;1.00;;
45007;SDS011;30743;52.008;5.644;2022-12-29T17:01:12;3.63;;;1.23;;
45007;SDS011;30743;52.008;5.644;2022-12-29T17:03:44;2.53;;;0.90;;
45007;SDS011;30743;52.008;5.644;2022-12-29T17:06:14;6.18;;;1.33;;
45007;SDS011;30743;52.008;5.644;2022-12-29T17:08:41;5.00;;;1.20;;
45007;SDS011;30743;52.008;5.644;2022-12-29T17:11:15;5.40;;;0.85;;
45007;SDS011;30743;52.008;5.644;2022-12-29T17:14:26;3.97;;;1.00;;
45007;SDS011;30743;52.008;5.644;2022-12-29T17:16:59;4.57;;;1.00;;
45007;SDS011;30743;52.008;5.644;2022-12-29T17:19:34;4.85;;;1.20;;
45007;SDS011;30743;52.008;5.644;2022-12-29T17:22:01;6.45;;;1.20;;
45007;SDS011;30743;52.008;5.644;2022-12-29T17:24:28;4.22;;;1.30;;
45007;SDS011;30743;52.008;5.644;2022-12-29T17:26:58;5.53;;;0.93;;
45007;SDS011;30743;52.008;5.644;2022-12-29T17:29:29;5.03;;;1.10;;
45007;SDS011;30743;52.008;5.644;2022-12-29T17:31:56;3.42;;;1.23;;
45007;SDS011;30743;52.008;5.644;2022-12-29T17:34:22;5.30;;;1.13;;
45007;SDS011;30743;52.008;5.644;2022-12-29T17:36:48;5.03;;;1.40;;
45007;SDS011;30743;52.008;5.644;2022-12-29T17:39:13;5.57;;;1.30;;
45007;SDS011;30743;52.008;5.644;2022-12-29T17:41:39;6.65;;;1.30;;
45007;SDS011;30743;52.008;5.644;2022-12-29T17:44:05;6.82;;;1.73;;
45007;SDS011;30743;52.008;5.644;2022-12-29T17:46:31;6.18;;;1.27;;
45007;SDS011;30743;52.008;5.644;2022-12-29T17:48:57;6.25;;;1.10;;
45007;SDS011;30743;52.008;5.644;2022-12-29T17:51:23;6.03;;;1.27;;
45007;SDS011;30743;52.008;5.644;2022-12-29T17:53:49;8.20;;;1.95;;
45007;SDS011;30743;52.008;5.644;2022-12-29T17:56:16;8.93;;;1.50;;
45007;SDS011;30743;52.008;5.644;2022-12-29T17:58:42;9.13;;;1.55;;
45007;SDS011;30743;52.008;5.644;2022-12-29T18:01:14;7.50;;;1.35;;
45007;SDS011;30743;52.008;5.644;2022-12-29T18:03:45;6.57;;;1.30;;
45007;SDS011;30743;52.008;5.644;2022-12-29T18:06:11;4.97;;;1.27;;
45007;SDS011;30743;52.008;5.644;2022-12-29T18:08:37;6.78;;;1.58;;
45007;SDS011;30743;52.008;5.644;2022-12-29T18:11:05;8.85;;;1.30;;
45007;SDS011;30743;52.008;5.644;2022-12-29T18:13:47;7.20;;;1.75;;
45007;SDS011;30743;52.008;5.644;2022-12-29T18:16:12;5.03;;;1.52;;
45007;SDS011;30743;52.008;5.644;2022-12-29T18:18:38;6.32;;;1.48;;
45007;SDS011;30743;52.008;5.644;2022-12-29T18:21:04;7.15;;;1.75;;